createdAt,value
2018-02-18T00:00:10.780Z,1.26
2018-02-18T00:01:10.789Z,1.29
2018-02-18T00:02:10.801Z,1.16
2018-02-18T00:03:10.810Z,1.22
2018-02-18T00:04:10.823Z,1.26
2018-02-18T00:05:10.830Z,1.22
2018-02-18T00:06:10.839Z,1.18
2018-02-18T00:07:10.851Z,1.20
2018-02-18T00:08:10.859Z,1.20
2018-02-18T00:09:10.871Z,1.27
2018-02-18T00:10:10.881Z,1.20
2018-02-18T00:11:10.891Z,1.23
2018-02-18T00:12:10.901Z,1.24
2018-02-18T00:13:10.912Z,1.23
2018-02-18T00:14:10.922Z,1.23
2018-02-18T00:15:10.931Z,1.22
2018-02-18T00:16:10.942Z,1.18
2018-02-18T00:17:10.952Z,1.11
2018-02-18T00:18:10.961Z,1.11
2018-02-18T00:19:10.972Z,1.09
2018-02-18T00:20:10.983Z,1.05
2018-02-18T00:21:10.991Z,1.04
2018-02-18T00:22:11.004Z,1.11
2018-02-18T00:23:11.013Z,1.04
2018-02-18T00:24:11.022Z,1.06
2018-02-18T00:25:11.033Z,1.02
2018-02-18T00:26:11.044Z,0.96
2018-02-18T00:27:11.052Z,0.94
2018-02-18T00:28:11.061Z,1.00
2018-02-18T00:29:11.072Z,0.98
2018-02-18T00:30:11.082Z,0.98
2018-02-18T00:31:11.094Z,1.00
2018-02-18T00:32:11.102Z,0.96
2018-02-18T00:33:11.116Z,0.90
2018-02-18T00:34:11.124Z,0.87
2018-02-18T00:35:11.134Z,0.86
2018-02-18T00:36:11.143Z,0.91
2018-02-18T00:37:11.154Z,0.79
2018-02-18T00:38:11.164Z,0.72
2018-02-18T00:39:11.173Z,0.84
2018-02-18T00:40:11.183Z,0.80
2018-02-18T00:41:11.193Z,0.80
2018-02-18T00:42:11.203Z,0.84
2018-02-18T00:43:11.214Z,0.88
2018-02-18T00:44:11.223Z,0.79
2018-02-18T00:45:11.232Z,0.78
2018-02-18T00:46:11.242Z,0.80
2018-02-18T00:47:11.253Z,0.75
2018-02-18T00:48:11.261Z,0.76
2018-02-18T00:49:11.273Z,0.76
2018-02-18T00:50:11.284Z,0.70
2018-02-18T00:51:11.292Z,0.66
2018-02-18T00:52:11.301Z,0.65
2018-02-18T00:53:11.312Z,0.60
2018-02-18T00:54:11.324Z,0.75
2018-02-18T00:55:11.332Z,0.69
2018-02-18T00:56:11.340Z,0.69
2018-02-18T00:57:11.352Z,0.68
2018-02-18T00:58:11.363Z,0.68
2018-02-18T00:59:11.372Z,0.75
2018-02-18T01:00:11.381Z,0.72
2018-02-18T01:01:11.392Z,0.79
2018-02-18T01:02:11.404Z,0.61
2018-02-18T01:03:11.412Z,0.66
2018-02-18T01:04:11.421Z,0.69
2018-02-18T01:05:11.429Z,0.70
2018-02-18T01:06:11.446Z,0.70
2018-02-18T01:07:11.450Z,0.76
2018-02-18T01:08:11.460Z,0.72
2018-02-18T01:09:11.471Z,0.69
2018-02-18T01:10:11.481Z,0.73
2018-02-18T01:11:11.492Z,0.65
2018-02-18T01:12:11.500Z,0.68
2018-02-18T01:13:11.510Z,0.69
2018-02-18T01:14:11.520Z,0.62
2018-02-18T01:15:11.532Z,0.70
2018-02-18T01:16:11.539Z,0.70
2018-02-18T01:17:11.549Z,0.62
2018-02-18T01:18:11.560Z,0.72
2018-02-18T01:19:11.568Z,0.65
2018-02-18T01:20:11.584Z,0.65
2018-02-18T01:21:11.590Z,0.66
2018-02-18T01:22:11.598Z,0.61
2018-02-18T01:23:11.608Z,0.61
2018-02-18T01:24:11.618Z,0.65
2018-02-18T01:25:11.627Z,0.68
2018-02-18T01:26:11.639Z,0.69
2018-02-18T01:27:11.648Z,0.70
2018-02-18T01:28:11.658Z,0.75
2018-02-18T01:29:11.666Z,0.70
2018-02-18T01:30:11.677Z,0.62
2018-02-18T01:31:11.689Z,0.61
2018-02-18T01:32:11.697Z,0.69
2018-02-18T01:33:11.707Z,0.66
2018-02-18T01:34:11.717Z,0.62
2018-02-18T01:35:11.726Z,0.72
2018-02-18T01:36:11.736Z,0.57
2018-02-18T01:37:11.747Z,0.69
2018-02-18T01:38:11.757Z,0.66
2018-02-18T01:39:11.769Z,0.60
2018-02-18T01:40:11.777Z,0.66
2018-02-18T01:41:11.786Z,0.68
2018-02-18T01:42:11.796Z,0.66
2018-02-18T01:43:11.808Z,0.69
2018-02-18T01:44:11.815Z,0.72
2018-02-18T01:45:11.827Z,0.73
2018-02-18T01:46:11.836Z,0.65
2018-02-18T01:47:11.845Z,0.61
2018-02-18T01:48:11.854Z,0.68
2018-02-18T01:49:11.864Z,0.68
2018-02-18T01:50:11.875Z,0.70
2018-02-18T01:51:11.885Z,0.68
2018-02-18T01:52:11.898Z,0.72
2018-02-18T01:53:11.906Z,0.73
2018-02-18T01:54:11.915Z,0.58
2018-02-18T01:55:11.924Z,0.60
2018-02-18T01:56:11.934Z,0.65
2018-02-18T01:57:11.943Z,0.66
2018-02-18T01:58:11.955Z,0.69
2018-02-18T01:59:11.962Z,0.69
2018-02-18T02:00:11.973Z,0.72
2018-02-18T02:01:11.984Z,0.69
2018-02-18T02:02:12.002Z,0.69
2018-02-18T02:03:11.999Z,0.51
2018-02-18T02:04:12.011Z,0.55
2018-02-18T02:05:12.022Z,0.53
2018-02-18T02:06:12.031Z,0.55
2018-02-18T02:07:12.042Z,0.65
2018-02-18T02:08:12.048Z,0.57
2018-02-18T02:09:12.058Z,0.57
2018-02-18T02:10:12.068Z,0.57
2018-02-18T02:11:12.079Z,0.53
2018-02-18T02:12:12.089Z,0.55
2018-02-18T02:13:12.098Z,0.46
2018-02-18T02:14:12.106Z,0.44
2018-02-18T02:15:12.119Z,0.41
2018-02-18T02:16:12.129Z,0.47
2018-02-18T02:17:12.138Z,0.38
2018-02-18T02:18:12.150Z,0.42
2018-02-18T02:19:12.157Z,0.39
2018-02-18T02:20:12.167Z,0.41
2018-02-18T02:21:12.177Z,0.46
2018-02-18T02:22:12.186Z,0.32
2018-02-18T02:23:12.194Z,0.39
2018-02-18T02:24:12.205Z,0.44
2018-02-18T02:25:12.216Z,0.38
2018-02-18T02:26:12.224Z,0.36
2018-02-18T02:27:12.235Z,0.36
2018-02-18T02:28:12.242Z,0.39
2018-02-18T02:29:12.256Z,0.31
2018-02-18T02:30:12.263Z,0.33
2018-02-18T02:31:12.272Z,0.29
2018-02-18T02:32:12.281Z,0.28
2018-02-18T02:33:12.291Z,0.28
2018-02-18T02:34:12.300Z,0.24
2018-02-18T02:35:12.310Z,0.21
2018-02-18T02:36:12.323Z,0.14
2018-02-18T02:37:12.329Z,0.21
2018-02-18T02:38:12.339Z,0.31
2018-02-18T02:39:12.349Z,0.32
2018-02-18T02:40:12.356Z,0.20
2018-02-18T02:41:12.379Z,0.24
2018-02-18T02:42:12.378Z,0.24
2018-02-18T02:43:12.386Z,0.26
2018-02-18T02:44:12.397Z,0.26
2018-02-18T02:45:12.407Z,0.28
2018-02-18T02:46:12.416Z,0.24
2018-02-18T02:47:12.424Z,0.32
2018-02-18T02:48:12.439Z,0.24
2018-02-18T02:49:12.445Z,0.29
2018-02-18T02:50:12.453Z,0.24
2018-02-18T02:51:12.465Z,0.28
2018-02-18T02:52:12.489Z,0.23
2018-02-18T02:53:12.481Z,0.24
2018-02-18T02:54:12.491Z,0.20
2018-02-18T02:55:12.503Z,0.21
2018-02-18T02:56:12.512Z,0.23
2018-02-18T02:57:12.521Z,0.15
2018-02-18T02:58:12.532Z,0.21
2018-02-18T02:59:12.541Z,0.21
2018-02-18T03:00:12.550Z,0.11
2018-02-18T03:01:12.559Z,0.13
2018-02-18T03:02:12.569Z,0.13
2018-02-18T03:03:12.577Z,0.03
2018-02-18T03:04:12.586Z,0.10
2018-02-18T03:05:12.595Z,0.00
2018-02-18T03:06:12.605Z,0.03
2018-02-18T03:07:12.616Z,-0.01
2018-02-18T03:08:12.623Z,0.04
2018-02-18T03:09:12.632Z,0.11
2018-02-18T03:10:12.644Z,0.08
2018-02-18T03:11:12.653Z,0.08
2018-02-18T03:12:12.664Z,0.11
2018-02-18T03:13:12.672Z,0.13
2018-02-18T03:14:12.682Z,0.08
2018-02-18T03:15:12.692Z,0.04
2018-02-18T03:16:12.700Z,0.13
2018-02-18T03:17:12.708Z,0.03
2018-02-18T03:18:12.719Z,0.08
2018-02-18T03:19:12.729Z,0.00
2018-02-18T03:20:12.738Z,0.08
2018-02-18T03:21:12.744Z,0.03
2018-02-18T03:22:12.758Z,0.08
2018-02-18T03:23:12.765Z,0.00
2018-02-18T03:24:12.773Z,0.04
2018-02-18T03:25:12.783Z,-0.01
2018-02-18T03:26:12.795Z,0.04
2018-02-18T03:27:12.805Z,0.10
2018-02-18T03:28:12.814Z,0.04
2018-02-18T03:29:12.822Z,0.04
2018-02-18T03:30:12.833Z,0.03
2018-02-18T03:31:12.843Z,-0.07
2018-02-18T03:32:12.850Z,-0.08
2018-02-18T03:33:12.858Z,-0.05
2018-02-18T03:34:12.870Z,-0.08
2018-02-18T03:35:12.880Z,0.00
2018-02-18T03:36:12.888Z,-0.04
2018-02-18T03:37:12.898Z,0.00
2018-02-18T03:38:12.905Z,-0.05
2018-02-18T03:39:12.914Z,-0.05
2018-02-18T03:40:12.923Z,-0.03
2018-02-18T03:41:12.934Z,-0.04
2018-02-18T03:42:12.948Z,-0.08
2018-02-18T03:43:12.953Z,-0.05
2018-02-18T03:44:12.965Z,-0.11
2018-02-18T03:45:12.970Z,-0.10
2018-02-18T03:46:12.984Z,-0.07
2018-02-18T03:47:12.990Z,-0.15
2018-02-18T03:48:13.001Z,-0.14
2018-02-18T03:49:13.008Z,-0.15
2018-02-18T03:50:13.019Z,-0.07
2018-02-18T03:51:13.027Z,-0.16
2018-02-18T03:52:13.034Z,-0.14
2018-02-18T03:53:13.045Z,-0.11
2018-02-18T03:54:13.055Z,-0.05
2018-02-18T03:55:13.062Z,-0.01
2018-02-18T03:56:13.074Z,-0.04
2018-02-18T03:57:13.083Z,-0.11
2018-02-18T03:58:13.092Z,-0.14
2018-02-18T03:59:13.253Z,-0.16
2018-02-18T04:00:13.109Z,-0.08
2018-02-18T04:01:13.121Z,-0.14
2018-02-18T04:02:13.126Z,-0.18
2018-02-18T04:03:13.131Z,-0.21
2018-02-18T04:04:13.141Z,-0.15
2018-02-18T04:05:13.153Z,-0.23
2018-02-18T04:06:13.160Z,-0.15
2018-02-18T04:07:13.169Z,-0.21
2018-02-18T04:08:13.179Z,-0.19
2018-02-18T04:09:13.187Z,-0.22
2018-02-18T04:10:13.198Z,-0.21
2018-02-18T04:11:13.205Z,-0.19
2018-02-18T04:12:13.217Z,-0.22
2018-02-18T04:13:13.227Z,-0.19
2018-02-18T04:14:13.232Z,-0.18
2018-02-18T04:15:13.242Z,-0.21
2018-02-18T04:16:13.253Z,-0.25
2018-02-18T04:17:13.261Z,-0.23
2018-02-18T04:18:13.270Z,-0.26
2018-02-18T04:19:13.282Z,-0.26
2018-02-18T04:20:13.287Z,-0.31
2018-02-18T04:21:13.401Z,-0.31
2018-02-18T04:22:13.307Z,-0.31
2018-02-18T04:23:13.315Z,-0.33
2018-02-18T04:24:13.324Z,-0.34
2018-02-18T04:25:13.334Z,-0.36
2018-02-18T04:26:13.343Z,-0.31
2018-02-18T04:27:13.356Z,-0.25
2018-02-18T04:28:13.364Z,-0.29
2018-02-18T04:29:13.371Z,-0.21
2018-02-18T04:30:13.380Z,-0.21
2018-02-18T04:31:13.390Z,-0.33
2018-02-18T04:32:13.401Z,-0.25
2018-02-18T04:33:13.408Z,-0.26
2018-02-18T04:34:13.417Z,-0.26
2018-02-18T04:35:13.425Z,-0.34
2018-02-18T04:36:13.435Z,-0.33
2018-02-18T04:37:13.444Z,-0.36
2018-02-18T04:38:13.454Z,-0.42
2018-02-18T04:39:13.462Z,-0.40
2018-02-18T04:40:13.471Z,-0.40
2018-02-18T04:41:13.479Z,-0.29
2018-02-18T04:42:13.489Z,-0.36
2018-02-18T04:43:13.499Z,-0.39
2018-02-18T04:44:13.507Z,-0.43
2018-02-18T04:45:13.515Z,-0.34
2018-02-18T04:46:13.523Z,-0.37
2018-02-18T04:47:13.535Z,-0.39
2018-02-18T04:48:13.541Z,-0.31
2018-02-18T04:49:13.552Z,-0.39
2018-02-18T04:50:13.562Z,-0.42
2018-02-18T04:51:13.570Z,-0.44
2018-02-18T04:52:13.581Z,-0.40
2018-02-18T04:53:13.590Z,-0.42
2018-02-18T04:54:13.599Z,-0.46
2018-02-18T04:55:13.608Z,-0.47
2018-02-18T04:56:13.616Z,-0.51
2018-02-18T04:57:13.625Z,-0.47
2018-02-18T04:58:13.635Z,-0.54
2018-02-18T04:59:13.645Z,-0.44
2018-02-18T05:00:13.652Z,-0.40
2018-02-18T05:01:13.662Z,-0.43
2018-02-18T05:02:13.671Z,-0.46
2018-02-18T05:03:13.679Z,-0.42
2018-02-18T05:04:13.688Z,-0.51
2018-02-18T05:05:13.698Z,-0.36
2018-02-18T05:06:13.707Z,-0.29
2018-02-18T05:07:13.716Z,-0.36
2018-02-18T05:08:13.724Z,-0.36
2018-02-18T05:09:13.733Z,-0.46
2018-02-18T05:10:13.744Z,-0.46
2018-02-18T05:11:13.753Z,-0.44
2018-02-18T05:12:13.759Z,-0.54
2018-02-18T05:13:13.770Z,-0.49
2018-02-18T05:14:13.778Z,-0.55
2018-02-18T05:15:13.789Z,-0.65
2018-02-18T05:16:13.797Z,-0.60
2018-02-18T05:17:13.808Z,-0.49
2018-02-18T05:18:13.818Z,-0.58
2018-02-18T05:19:13.823Z,-0.65
2018-02-18T05:20:13.832Z,-0.61
2018-02-18T05:21:13.842Z,-0.62
2018-02-18T05:22:13.850Z,-0.65
2018-02-18T05:23:13.861Z,-0.72
2018-02-18T05:24:13.869Z,-0.61
2018-02-18T05:25:13.882Z,-0.69
2018-02-18T05:26:13.887Z,-0.67
2018-02-18T05:27:13.896Z,-0.61
2018-02-18T05:28:13.904Z,-0.55
2018-02-18T05:29:13.913Z,-0.61
2018-02-18T05:30:13.923Z,-0.58
2018-02-18T05:31:13.933Z,-0.58
2018-02-18T05:32:13.941Z,-0.52
2018-02-18T05:33:13.950Z,-0.61
2018-02-18T05:34:13.960Z,-0.52
2018-02-18T05:35:13.968Z,-0.67
2018-02-18T05:36:13.978Z,-0.64
2018-02-18T05:37:13.986Z,-0.62
2018-02-18T05:38:13.997Z,-0.67
2018-02-18T05:39:14.003Z,-0.67
2018-02-18T05:40:14.013Z,-0.73
2018-02-18T05:41:14.023Z,-0.70
2018-02-18T05:42:14.032Z,-0.70
2018-02-18T05:43:14.040Z,-0.70
2018-02-18T05:44:14.049Z,-0.73
2018-02-18T05:45:14.059Z,-0.69
2018-02-18T05:46:14.070Z,-0.69
2018-02-18T05:47:14.077Z,-0.75
2018-02-18T05:48:14.084Z,-0.72
2018-02-18T05:49:14.093Z,-0.79
2018-02-18T05:50:14.102Z,-0.73
2018-02-18T05:51:14.112Z,-0.76
2018-02-18T05:52:14.121Z,-0.67
2018-02-18T05:53:14.129Z,-0.64
2018-02-18T05:54:14.139Z,-0.57
2018-02-18T05:55:14.148Z,-0.55
2018-02-18T05:56:14.156Z,-0.58
2018-02-18T05:57:14.164Z,-0.54
2018-02-18T05:58:14.175Z,-0.54
2018-02-18T05:59:14.184Z,-0.64
2018-02-18T06:00:14.192Z,-0.65
2018-02-18T06:01:14.203Z,-0.60
2018-02-18T06:02:14.210Z,-0.57
2018-02-18T06:03:14.220Z,-0.67
2018-02-18T06:04:14.228Z,-0.55
2018-02-18T06:05:14.237Z,-0.65
2018-02-18T06:06:14.246Z,-0.61
2018-02-18T06:07:14.255Z,-0.64
2018-02-18T06:08:14.263Z,-0.72
2018-02-18T06:09:14.277Z,-0.70
2018-02-18T06:10:14.282Z,-0.70
2018-02-18T06:11:14.290Z,-0.72
2018-02-18T06:12:14.298Z,-0.75
2018-02-18T06:13:14.308Z,-0.69
2018-02-18T06:14:14.319Z,-0.67
2018-02-18T06:15:14.327Z,-0.65
2018-02-18T06:16:14.336Z,-0.79
2018-02-18T06:17:14.344Z,-0.61
2018-02-18T06:18:14.355Z,-0.67
2018-02-18T06:19:14.363Z,-0.78
2018-02-18T06:20:14.371Z,-0.75
2018-02-18T06:21:14.381Z,-0.75
2018-02-18T06:22:14.389Z,-0.76
2018-02-18T06:23:14.399Z,-0.65
2018-02-18T06:24:14.407Z,-0.69
2018-02-18T06:25:14.417Z,-0.65
2018-02-18T06:26:14.426Z,-0.52
2018-02-18T06:27:14.434Z,-0.70
2018-02-18T06:28:14.445Z,-0.67
2018-02-18T06:29:14.454Z,-0.65
2018-02-18T06:30:14.461Z,-0.58
2018-02-18T06:31:14.472Z,-0.69
2018-02-18T06:32:14.479Z,-0.69
2018-02-18T06:33:14.487Z,-0.64
2018-02-18T06:34:14.497Z,-0.64
2018-02-18T06:35:14.505Z,-0.72
2018-02-18T06:36:14.516Z,-0.65
2018-02-18T06:37:14.523Z,-0.67
2018-02-18T06:38:14.535Z,-0.58
2018-02-18T06:39:14.542Z,-0.58
2018-02-18T06:40:14.593Z,-0.60
2018-02-18T06:41:14.564Z,-0.54
2018-02-18T06:42:14.569Z,-0.60
2018-02-18T06:43:14.579Z,-0.64
2018-02-18T06:44:14.588Z,-0.60
2018-02-18T06:45:14.594Z,-0.62
2018-02-18T06:46:14.605Z,-0.58
2018-02-18T06:47:14.614Z,-0.65
2018-02-18T06:48:14.623Z,-0.69
2018-02-18T06:49:14.631Z,-0.62
2018-02-18T06:50:14.641Z,-0.65
2018-02-18T06:51:14.652Z,-0.67
2018-02-18T06:52:14.658Z,-0.55
2018-02-18T06:53:14.666Z,-0.64
2018-02-18T06:54:14.677Z,-0.62
2018-02-18T06:55:14.685Z,-0.65
2018-02-18T06:56:14.694Z,-0.70
2018-02-18T06:57:14.703Z,-0.70
2018-02-18T06:58:14.714Z,-0.73
2018-02-18T06:59:14.721Z,-0.78
2018-02-18T07:00:14.729Z,-0.70
2018-02-18T07:01:14.739Z,-0.70
2018-02-18T07:02:14.754Z,-0.67
2018-02-18T07:03:14.756Z,-0.76
2018-02-18T07:04:14.765Z,-0.72
2018-02-18T07:05:14.776Z,-0.72
2018-02-18T07:06:14.783Z,-0.67
2018-02-18T07:07:14.793Z,-0.72
2018-02-18T07:08:14.801Z,-0.61
2018-02-18T07:09:14.811Z,-0.69
2018-02-18T07:10:14.820Z,-0.65
2018-02-18T07:11:14.828Z,-0.64
2018-02-18T07:12:14.837Z,-0.65
2018-02-18T07:13:14.847Z,-0.52
2018-02-18T07:14:14.861Z,-0.52
2018-02-18T07:15:14.865Z,-0.54
2018-02-18T07:16:14.874Z,-0.49
2018-02-18T07:17:14.884Z,-0.44
2018-02-18T07:18:14.893Z,-0.44
2018-02-18T07:19:14.901Z,-0.54
2018-02-18T07:20:14.910Z,-0.47
2018-02-18T07:21:14.917Z,-0.60
2018-02-18T07:22:14.932Z,-0.49
2018-02-18T07:23:14.938Z,-0.58
2018-02-18T07:24:14.947Z,-0.60
2018-02-18T07:25:14.957Z,-0.61
2018-02-18T07:26:14.965Z,-0.58
2018-02-18T07:27:14.973Z,-0.55
2018-02-18T07:28:14.981Z,-0.65
2018-02-18T07:29:14.993Z,-0.67
2018-02-18T07:30:15.011Z,-0.64
2018-02-18T07:31:15.011Z,-0.54
2018-02-18T07:32:15.019Z,-0.54
2018-02-18T07:33:15.029Z,-0.61
2018-02-18T07:34:15.038Z,-0.47
2018-02-18T07:35:15.049Z,-0.58
2018-02-18T07:36:15.062Z,-0.62
2018-02-18T07:37:15.066Z,-0.51
2018-02-18T07:38:15.088Z,-0.49
2018-02-18T07:39:15.083Z,-0.43
2018-02-18T07:40:15.093Z,-0.52
2018-02-18T07:41:15.102Z,-0.46
2018-02-18T07:42:15.111Z,-0.47
2018-02-18T07:43:15.123Z,-0.52
2018-02-18T07:44:15.128Z,-0.43
2018-02-18T07:45:15.139Z,-0.36
2018-02-18T07:46:15.147Z,-0.46
2018-02-18T07:47:15.155Z,-0.46
2018-02-18T07:48:15.219Z,-0.44
2018-02-18T07:49:15.175Z,-0.39
2018-02-18T07:50:15.183Z,-0.36
2018-02-18T07:51:15.193Z,-0.37
2018-02-18T07:52:15.204Z,-0.42
2018-02-18T07:53:15.209Z,-0.34
2018-02-18T07:54:15.220Z,-0.36
2018-02-18T07:55:15.229Z,-0.34
2018-02-18T07:56:15.237Z,-0.29
2018-02-18T07:57:15.249Z,-0.34
2018-02-18T07:58:15.256Z,-0.23
2018-02-18T07:59:15.266Z,-0.26
2018-02-18T08:00:15.274Z,-0.25
2018-02-18T08:01:15.287Z,-0.21
2018-02-18T08:02:15.293Z,-0.23
2018-02-18T08:03:15.301Z,-0.19
2018-02-18T08:04:15.313Z,-0.15
2018-02-18T08:05:15.321Z,-0.18
2018-02-18T08:06:15.337Z,-0.11
2018-02-18T08:07:15.340Z,-0.10
2018-02-18T08:08:15.347Z,-0.07
2018-02-18T08:09:15.357Z,-0.11
2018-02-18T08:10:15.368Z,-0.04
2018-02-18T08:11:15.377Z,-0.07
2018-02-18T08:12:15.386Z,-0.07
2018-02-18T08:13:15.395Z,-0.07
2018-02-18T08:14:15.404Z,0.04
2018-02-18T08:15:15.413Z,0.04
2018-02-18T08:16:15.428Z,0.03
2018-02-18T08:17:15.432Z,0.21
2018-02-18T08:18:15.445Z,0.11
2018-02-18T08:19:15.453Z,0.15
2018-02-18T08:20:15.460Z,0.26
2018-02-18T08:21:15.469Z,0.24
2018-02-18T08:22:15.478Z,0.24
2018-02-18T08:23:15.487Z,0.32
2018-02-18T08:24:15.500Z,0.39
2018-02-18T08:25:15.505Z,0.39
2018-02-18T08:26:15.515Z,0.49
2018-02-18T08:27:15.525Z,0.47
2018-02-18T08:28:15.534Z,0.46
2018-02-18T08:29:15.543Z,0.46
2018-02-18T08:30:15.553Z,0.47
2018-02-18T08:31:15.563Z,0.46
2018-02-18T08:32:15.571Z,0.46
2018-02-18T08:33:15.580Z,0.53
2018-02-18T08:34:15.591Z,0.53
2018-02-18T08:35:15.598Z,0.51
2018-02-18T08:36:15.609Z,0.53
2018-02-18T08:37:15.618Z,0.58
2018-02-18T08:38:15.628Z,0.50
2018-02-18T08:39:15.638Z,0.55
2018-02-18T08:40:15.646Z,0.61
2018-02-18T08:41:15.657Z,0.66
2018-02-18T08:42:15.669Z,0.78
2018-02-18T08:43:15.675Z,0.72
2018-02-18T08:44:15.683Z,0.69
2018-02-18T08:45:15.692Z,0.72
2018-02-18T08:46:15.704Z,0.78
2018-02-18T08:47:15.713Z,0.79
2018-02-18T08:48:15.721Z,0.88
2018-02-18T08:49:15.731Z,0.91
2018-02-18T08:50:15.741Z,0.90
2018-02-18T08:51:15.750Z,0.98
2018-02-18T08:52:15.760Z,1.05
2018-02-18T08:53:15.768Z,1.09
2018-02-18T08:55:15.776Z,1.04
2018-02-18T08:56:15.785Z,1.11
2018-02-18T08:57:15.796Z,1.22
2018-02-18T08:58:15.810Z,1.22
2018-02-18T08:59:15.819Z,1.18
2018-02-18T09:00:15.824Z,1.34
2018-02-18T09:01:15.832Z,1.29
2018-02-18T09:02:15.845Z,1.30
2018-02-18T09:03:15.855Z,1.36
2018-02-18T09:04:15.863Z,1.37
2018-02-18T09:05:15.873Z,1.41
2018-02-18T09:06:15.883Z,1.45
2018-02-18T09:07:15.894Z,1.45
2018-02-18T09:08:15.900Z,1.50
2018-02-18T09:09:15.914Z,1.54
2018-02-18T09:10:15.920Z,1.48
2018-02-18T09:11:15.932Z,1.48
2018-02-18T09:12:15.952Z,1.45
2018-02-18T09:13:15.962Z,1.48
2018-02-18T09:14:15.979Z,1.62
2018-02-18T09:15:15.980Z,1.62
2018-02-18T09:16:16.041Z,1.60
2018-02-18T09:17:16.000Z,1.77
2018-02-18T09:18:16.011Z,1.73
2018-02-18T09:19:16.022Z,1.73
2018-02-18T09:20:16.030Z,1.87
2018-02-18T09:21:16.042Z,1.93
2018-02-18T09:22:16.051Z,1.91
2018-02-18T09:23:16.060Z,1.93
2018-02-18T09:24:16.070Z,1.99
2018-02-18T09:25:16.083Z,2.02
2018-02-18T09:26:16.096Z,1.99
2018-02-18T09:27:16.100Z,1.98
2018-02-18T09:28:16.111Z,2.14
2018-02-18T09:29:16.120Z,2.14
2018-02-18T09:30:16.136Z,2.24
2018-02-18T09:31:16.141Z,2.23
2018-02-18T09:32:16.153Z,2.21
2018-02-18T09:33:16.159Z,2.35
2018-02-18T09:34:16.168Z,2.39
2018-02-18T09:35:16.182Z,2.39
2018-02-18T09:36:16.189Z,2.52
2018-02-18T09:37:16.199Z,2.45
2018-02-18T09:38:16.211Z,2.56
2018-02-18T09:39:16.325Z,2.66
2018-02-18T09:40:16.232Z,2.69
2018-02-18T09:41:16.241Z,2.71
2018-02-18T09:42:16.256Z,2.79
2018-02-18T09:43:16.262Z,2.82
2018-02-18T09:44:16.275Z,2.79
2018-02-18T09:45:16.281Z,2.85
2018-02-18T09:46:16.293Z,2.89
2018-02-18T09:47:16.303Z,2.99
2018-02-18T09:48:16.313Z,2.96
2018-02-18T09:49:16.324Z,2.97
2018-02-18T09:50:16.335Z,3.00
2018-02-18T09:51:16.346Z,3.18
2018-02-18T09:52:16.354Z,3.18
2018-02-18T09:53:16.368Z,3.18
2018-02-18T09:54:16.376Z,3.15
2018-02-18T09:55:16.387Z,3.15
2018-02-18T09:56:16.398Z,3.28
2018-02-18T09:57:16.408Z,3.31
2018-02-18T09:58:16.421Z,3.36
2018-02-18T09:59:16.430Z,3.43
2018-02-18T10:00:16.442Z,3.47
2018-02-18T10:01:16.457Z,3.54
2018-02-18T10:02:16.461Z,3.69
2018-02-18T10:03:16.473Z,3.58
2018-02-18T10:04:16.484Z,3.65
2018-02-18T10:05:16.498Z,3.58
2018-02-18T10:06:16.504Z,3.65
2018-02-18T10:07:16.517Z,3.68
2018-02-18T10:08:16.524Z,3.68
2018-02-18T10:09:16.537Z,3.62
2018-02-18T10:10:16.548Z,3.76
2018-02-18T10:11:16.559Z,3.79
2018-02-18T10:12:16.569Z,3.80
2018-02-18T10:13:16.580Z,3.80
2018-02-18T10:14:16.601Z,3.80
2018-02-18T10:15:16.604Z,4.02
2018-02-18T10:16:16.611Z,3.98
2018-02-18T10:17:16.624Z,3.90
2018-02-18T10:18:16.637Z,4.02
2018-02-18T10:19:16.646Z,4.15
2018-02-18T10:20:16.657Z,4.09
2018-02-18T10:21:16.667Z,4.12
2018-02-18T10:22:16.679Z,4.11
2018-02-18T10:23:16.696Z,4.14
2018-02-18T10:24:16.701Z,4.16
2018-02-18T10:25:16.748Z,4.26
2018-02-18T10:26:16.722Z,4.30
2018-02-18T10:27:16.735Z,4.27
2018-02-18T10:28:16.745Z,4.30
2018-02-18T10:29:16.757Z,4.36
2018-02-18T10:30:16.766Z,4.40
2018-02-18T10:31:16.781Z,4.47
2018-02-18T10:32:16.790Z,4.48
2018-02-18T10:33:16.803Z,4.50
2018-02-18T10:34:16.812Z,4.47
2018-02-18T10:35:16.823Z,4.48
2018-02-18T10:36:16.834Z,4.50
2018-02-18T10:37:16.878Z,4.59
2018-02-18T10:38:16.858Z,4.55
2018-02-18T10:39:16.870Z,4.63
2018-02-18T10:40:16.879Z,4.72
2018-02-18T10:41:16.893Z,4.65
2018-02-18T10:42:16.901Z,4.78
2018-02-18T10:43:16.913Z,4.77
2018-02-18T10:44:16.923Z,4.88
2018-02-18T10:45:16.937Z,4.88
2018-02-18T10:46:16.950Z,4.99
2018-02-18T10:47:17.062Z,4.92
2018-02-18T10:48:16.973Z,4.96
2018-02-18T10:49:16.979Z,5.03
2018-02-18T10:50:16.996Z,5.03
2018-02-18T10:51:17.004Z,5.04
2018-02-18T10:52:17.014Z,5.15
2018-02-18T10:53:17.026Z,5.10
2018-02-18T10:54:17.048Z,5.25
2018-02-18T10:55:17.056Z,5.27
2018-02-18T10:56:17.057Z,5.13
2018-02-18T10:57:17.072Z,5.15
2018-02-18T10:58:17.084Z,5.22
2018-02-18T10:59:17.094Z,5.25
2018-02-18T11:00:17.111Z,5.22
2018-02-18T11:01:17.123Z,5.31
2018-02-18T11:02:17.132Z,5.33
2018-02-18T11:03:17.145Z,5.24
2018-02-18T11:04:17.151Z,5.33
2018-02-18T11:05:17.164Z,5.43
2018-02-18T11:06:17.176Z,5.35
2018-02-18T11:07:17.187Z,5.36
2018-02-18T11:08:17.203Z,5.48
2018-02-18T11:09:17.210Z,5.53
2018-02-18T11:10:17.222Z,5.48
2018-02-18T11:11:17.233Z,5.60
2018-02-18T11:12:17.248Z,5.57
2018-02-18T11:13:17.256Z,5.57
2018-02-18T11:14:17.269Z,5.65
2018-02-18T11:15:17.278Z,5.58
2018-02-18T11:16:17.291Z,5.63
2018-02-18T11:17:17.304Z,5.67
2018-02-18T11:18:17.314Z,5.64
2018-02-18T11:19:17.324Z,5.65
2018-02-18T11:20:17.337Z,5.74
2018-02-18T11:21:17.348Z,5.76
2018-02-18T11:22:17.361Z,5.76
2018-02-18T11:23:17.373Z,5.76
2018-02-18T11:24:17.382Z,5.75
2018-02-18T11:25:17.395Z,5.85
2018-02-18T11:26:17.408Z,5.91
2018-02-18T11:27:17.419Z,5.96
2018-02-18T11:28:17.432Z,5.94
2018-02-18T11:29:17.446Z,5.91
2018-02-18T11:30:17.456Z,6.09
2018-02-18T11:31:17.468Z,6.03
2018-02-18T11:32:17.479Z,6.14
2018-02-18T11:33:17.491Z,6.18
2018-02-18T11:34:17.503Z,6.19
2018-02-18T11:35:17.515Z,6.21
2018-02-18T11:36:17.525Z,6.27
2018-02-18T11:37:17.537Z,6.22
2018-02-18T11:38:17.550Z,6.15
2018-02-18T11:39:17.563Z,6.17
2018-02-18T11:40:17.573Z,6.27
2018-02-18T11:41:17.586Z,6.30
2018-02-18T11:42:17.604Z,6.22
2018-02-18T11:43:17.611Z,6.36
2018-02-18T11:44:17.621Z,6.34
2018-02-18T11:45:17.634Z,6.37
2018-02-18T11:46:17.647Z,6.41
2018-02-18T11:47:17.661Z,6.37
2018-02-18T11:48:17.672Z,6.40
2018-02-18T11:49:17.682Z,6.54
2018-02-18T11:50:17.694Z,6.55
2018-02-18T11:51:17.706Z,6.51
2018-02-18T11:52:17.749Z,6.37
2018-02-18T11:53:17.731Z,6.37
2018-02-18T11:54:17.741Z,6.49
2018-02-18T11:55:17.756Z,6.36
2018-02-18T11:56:17.765Z,6.37
2018-02-18T11:57:17.781Z,6.43
2018-02-18T11:58:17.793Z,6.44
2018-02-18T11:59:17.802Z,6.51
2018-02-18T12:00:17.815Z,6.46
2018-02-18T12:01:17.828Z,6.55
2018-02-18T12:02:17.837Z,6.33
2018-02-18T12:03:17.849Z,6.44
2018-02-18T12:04:17.862Z,6.52
2018-02-18T12:05:17.875Z,6.58
2018-02-18T12:06:17.887Z,6.56
2018-02-18T12:07:17.899Z,6.69
2018-02-18T12:08:17.911Z,6.62
2018-02-18T12:09:17.924Z,6.61
2018-02-18T12:10:17.935Z,6.62
2018-02-18T12:11:17.947Z,6.59
2018-02-18T12:12:17.959Z,6.62
2018-02-18T12:13:17.973Z,6.62
2018-02-18T12:14:17.985Z,6.69
2018-02-18T12:15:17.997Z,6.74
2018-02-18T12:16:18.010Z,6.70
2018-02-18T12:17:18.022Z,6.87
2018-02-18T12:18:18.035Z,6.94
2018-02-18T12:19:18.045Z,7.06
2018-02-18T12:20:18.050Z,6.97
2018-02-18T12:21:18.063Z,7.06
2018-02-18T12:22:18.075Z,7.06
2018-02-18T12:23:18.090Z,7.15
2018-02-18T12:24:18.100Z,7.13
2018-02-18T12:25:18.112Z,7.13
2018-02-18T12:26:18.125Z,6.99
2018-02-18T12:27:18.138Z,7.03
2018-02-18T12:28:18.150Z,7.06
2018-02-18T12:29:18.163Z,7.15
2018-02-18T12:30:18.174Z,7.23
2018-02-18T12:31:18.188Z,7.16
2018-02-18T12:32:18.199Z,7.13
2018-02-18T12:33:18.212Z,7.06
2018-02-18T12:34:18.256Z,7.16
2018-02-18T12:35:18.237Z,7.13
2018-02-18T12:36:18.252Z,7.09
2018-02-18T12:37:18.259Z,7.21
2018-02-18T12:38:18.275Z,7.21
2018-02-18T12:39:18.287Z,7.24
2018-02-18T12:40:18.297Z,7.24
2018-02-18T12:41:18.311Z,7.35
2018-02-18T12:42:18.324Z,7.45
2018-02-18T12:43:18.336Z,7.43
2018-02-18T12:44:18.348Z,7.32
2018-02-18T12:45:18.360Z,7.40
2018-02-18T12:46:18.374Z,7.49
2018-02-18T12:47:18.389Z,7.46
2018-02-18T12:48:18.400Z,7.45
2018-02-18T12:49:18.410Z,7.34
2018-02-18T12:50:18.423Z,7.31
2018-02-18T12:51:18.436Z,7.32
2018-02-18T12:52:18.450Z,7.40
2018-02-18T12:53:18.462Z,7.34
2018-02-18T12:54:18.474Z,7.34
2018-02-18T12:55:18.489Z,7.48
2018-02-18T12:56:18.499Z,7.49
2018-02-18T12:57:18.512Z,7.58
2018-02-18T12:58:18.524Z,7.58
2018-02-18T12:59:18.538Z,7.35
2018-02-18T13:00:18.574Z,7.52
2018-02-18T13:01:18.564Z,7.46
2018-02-18T13:02:18.576Z,7.45
2018-02-18T13:03:18.589Z,7.42
2018-02-18T13:04:18.601Z,7.43
2018-02-18T13:05:18.613Z,7.42
2018-02-18T13:06:18.626Z,7.45
2018-02-18T13:07:18.640Z,7.37
2018-02-18T13:08:18.655Z,7.32
2018-02-18T13:09:18.666Z,7.40
2018-02-18T13:10:18.677Z,7.46